createdAt,value
2018-01-22T00:00:19.695Z,21.80
2018-01-22T00:02:54.818Z,18.60
2018-01-22T00:05:29.355Z,19.20
2018-01-22T00:08:04.330Z,16.97
2018-01-22T00:10:39.486Z,17.00
2018-01-22T00:13:14.847Z,15.53
2018-01-22T00:15:50.506Z,19.50
2018-01-22T00:18:25.278Z,19.83
2018-01-22T00:21:00.591Z,18.83
2018-01-22T00:23:35.446Z,18.80
2018-01-22T00:26:10.447Z,18.25
2018-01-22T00:28:45.790Z,19.03
2018-01-22T00:31:20.675Z,15.20
2018-01-22T00:33:55.598Z,27.57
2018-01-22T00:36:30.811Z,16.27
2018-01-22T00:39:06.479Z,20.17
2018-01-22T00:41:41.383Z,18.60
2018-01-22T00:44:16.726Z,18.87
2018-01-22T00:46:51.492Z,17.33
2018-01-22T00:49:26.503Z,18.47
2018-01-22T00:52:01.931Z,15.80
2018-01-22T00:54:36.696Z,18.53
2018-01-22T00:57:11.837Z,19.80
2018-01-22T00:59:46.505Z,21.10
2018-01-22T01:02:21.648Z,19.60
2018-01-22T01:04:56.311Z,18.12
2018-01-22T01:07:31.328Z,18.98
2018-01-22T01:10:06.334Z,19.70
2018-01-22T01:12:40.902Z,18.17
2018-01-22T01:15:16.410Z,21.30
2018-01-22T01:17:51.411Z,15.65
2018-01-22T01:20:26.305Z,17.77
2018-01-22T01:23:01.470Z,19.07
2018-01-22T01:25:36.455Z,18.37
2018-01-22T01:28:11.659Z,19.23
2018-01-22T01:30:46.583Z,17.00
2018-01-22T01:33:21.111Z,17.83
2018-01-22T01:35:55.602Z,16.93
2018-01-22T01:38:30.710Z,18.50
2018-01-22T01:41:05.760Z,19.70
2018-01-22T01:43:40.602Z,19.83
2018-01-22T01:46:15.802Z,16.87
2018-01-22T01:49:01.894Z,13.80
2018-01-22T01:51:36.270Z,12.70
2018-01-22T01:54:11.788Z,15.03
2018-01-22T01:56:46.606Z,17.47
2018-01-22T01:59:21.598Z,16.13
2018-01-22T02:01:56.803Z,16.23
2018-01-22T02:04:31.762Z,18.30
2018-01-22T02:07:07.037Z,17.77
2018-01-22T02:09:42.687Z,16.13
2018-01-22T02:12:17.684Z,16.10
2018-01-22T02:14:52.699Z,13.83
2018-01-22T02:17:27.827Z,16.30
2018-01-22T02:20:02.243Z,15.67
2018-01-22T02:22:37.604Z,14.60
2018-01-22T02:25:12.854Z,15.20
2018-01-22T02:27:47.903Z,17.03
2018-01-22T02:30:22.601Z,12.37
2018-01-22T02:32:58.688Z,13.80
2018-01-22T02:35:33.777Z,17.30
2018-01-22T02:38:08.769Z,12.57
2018-01-22T02:40:44.062Z,16.10
2018-01-22T02:43:19.551Z,13.43
2018-01-22T02:45:54.248Z,12.60
2018-01-22T02:48:29.513Z,13.98
2018-01-22T02:51:05.037Z,13.90
2018-01-22T02:53:39.912Z,13.80
2018-01-22T02:56:15.004Z,12.03
2018-01-22T02:58:50.171Z,17.37
2018-01-22T03:01:24.873Z,12.30
2018-01-22T03:04:00.348Z,11.20
2018-01-22T03:06:35.107Z,7.90
2018-01-22T03:09:10.863Z,14.48
2018-01-22T03:11:45.303Z,11.93
2018-01-22T03:14:20.750Z,13.00
2018-01-22T03:16:55.755Z,11.87
2018-01-22T03:19:30.927Z,14.80
2018-01-22T03:22:06.495Z,15.20
2018-01-22T03:24:41.167Z,14.10
2018-01-22T03:27:15.835Z,16.35
2018-01-22T03:29:50.779Z,13.87
2018-01-22T03:32:25.867Z,14.50
2018-01-22T03:35:01.073Z,12.53
2018-01-22T03:37:36.229Z,13.50
2018-01-22T03:40:11.186Z,16.53
2018-01-22T03:42:46.016Z,14.90
2018-01-22T03:45:21.151Z,13.10
2018-01-22T03:47:56.369Z,14.47
2018-01-22T03:50:31.835Z,17.25
2018-01-22T03:53:06.810Z,17.50
2018-01-22T03:55:41.884Z,14.00
2018-01-22T03:58:17.035Z,16.67
2018-01-22T04:00:52.023Z,17.03
2018-01-22T04:03:27.018Z,15.20
2018-01-22T04:06:02.228Z,14.57
2018-01-22T04:08:37.725Z,14.10
2018-01-22T04:11:13.073Z,13.32
2018-01-22T04:13:47.881Z,10.20
2018-01-22T04:16:22.883Z,14.57
2018-01-22T04:18:59.060Z,13.70
2018-01-22T04:21:34.404Z,12.10
2018-01-22T04:24:09.751Z,10.82
2018-01-22T04:26:44.825Z,10.25
2018-01-22T04:29:19.970Z,12.77
2018-01-22T04:31:55.030Z,12.20
2018-01-22T04:34:29.802Z,9.73
2018-01-22T04:37:05.184Z,7.90
2018-01-22T04:39:40.063Z,13.05
2018-01-22T04:42:14.574Z,6.37
2018-01-22T04:44:49.926Z,8.57
2018-01-22T04:47:25.267Z,8.57
2018-01-22T04:50:00.258Z,9.40
2018-01-22T04:52:35.340Z,7.87
2018-01-22T04:55:10.463Z,9.07
2018-01-22T04:57:45.115Z,10.10
2018-01-22T05:00:20.259Z,7.77
2018-01-22T05:02:55.447Z,10.47
2018-01-22T05:05:30.428Z,10.93
2018-01-22T05:08:05.527Z,8.13
2018-01-22T05:10:40.539Z,9.80
2018-01-22T05:13:16.267Z,10.25
2018-01-22T05:15:51.171Z,7.97
2018-01-22T05:18:26.139Z,7.27
2018-01-22T05:21:01.299Z,8.97
2018-01-22T05:23:36.179Z,9.20
2018-01-22T05:26:10.944Z,8.18
2018-01-22T05:28:46.166Z,12.90
2018-01-22T05:31:21.091Z,12.40
2018-01-22T05:33:56.175Z,11.00
2018-01-22T05:36:31.166Z,10.07
2018-01-22T05:39:06.331Z,9.57
2018-01-22T05:41:40.918Z,10.63
2018-01-22T05:44:16.199Z,10.33
2018-01-22T05:46:51.256Z,8.10
2018-01-22T05:49:26.198Z,8.80
2018-01-22T05:52:01.458Z,10.03
2018-01-22T05:54:36.246Z,10.70
2018-01-22T05:57:11.027Z,11.63
2018-01-22T05:59:46.175Z,10.63
2018-01-22T06:02:21.070Z,7.77
2018-01-22T06:04:56.271Z,12.00
2018-01-22T06:07:31.267Z,9.80
2018-01-22T06:10:06.482Z,11.67
2018-01-22T06:12:41.234Z,11.43
2018-01-22T06:15:16.295Z,8.83
2018-01-22T06:17:50.469Z,11.73
2018-01-22T06:20:25.466Z,9.83
2018-01-22T06:23:00.965Z,8.03
2018-01-22T06:25:35.427Z,11.70
2018-01-22T06:28:10.562Z,8.33
2018-01-22T06:30:45.870Z,7.83
2018-01-22T06:33:20.839Z,8.00
2018-01-22T06:35:56.380Z,9.73
2018-01-22T06:38:31.622Z,12.30
2018-01-22T06:41:06.660Z,10.27
2018-01-22T06:43:40.911Z,9.73
2018-01-22T06:46:15.510Z,9.45
2018-01-22T06:48:50.499Z,7.23
2018-01-22T06:51:25.546Z,9.60
2018-01-22T06:54:00.612Z,13.67
2018-01-22T06:56:35.509Z,9.37
2018-01-22T06:59:09.931Z,9.48
2018-01-22T07:01:45.286Z,7.33
2018-01-22T07:04:20.309Z,7.57
2018-01-22T07:06:54.771Z,7.77
2018-01-22T07:09:29.256Z,3.43
2018-01-22T07:12:04.544Z,9.25
2018-01-22T07:14:39.542Z,8.43
2018-01-22T07:17:14.792Z,9.20
2018-01-22T07:19:49.546Z,12.03
2018-01-22T07:22:24.674Z,9.30
2018-01-22T07:24:59.783Z,8.47
2018-01-22T07:27:34.854Z,8.70
2018-01-22T07:30:11.356Z,10.23
2018-01-22T07:32:46.546Z,11.00
2018-01-22T07:35:21.849Z,8.53
2018-01-22T07:37:57.403Z,8.35
2018-01-22T07:40:32.455Z,9.70
2018-01-22T07:43:07.643Z,9.23
2018-01-22T07:45:42.617Z,9.85
2018-01-22T07:48:17.815Z,9.80
2018-01-22T07:50:52.799Z,6.50
2018-01-22T07:53:27.766Z,8.57
2018-01-22T07:56:03.384Z,8.90
2018-01-22T07:58:38.519Z,8.40
2018-01-22T08:01:13.447Z,8.90
2018-01-22T08:03:48.586Z,9.10
2018-01-22T08:06:23.668Z,9.40
2018-01-22T08:08:59.795Z,8.32
2018-01-22T08:11:34.539Z,7.30
2018-01-22T08:14:09.614Z,12.83
2018-01-22T08:16:44.590Z,10.50
2018-01-22T08:19:18.982Z,9.87
2018-01-22T08:21:54.561Z,9.00
2018-01-22T08:24:29.566Z,8.87
2018-01-22T08:27:04.784Z,10.90
2018-01-22T08:29:40.051Z,8.30
2018-01-22T08:32:14.752Z,9.38
2018-01-22T08:34:49.672Z,10.23
2018-01-22T08:37:24.460Z,10.45
2018-01-22T08:39:59.963Z,7.53
2018-01-22T08:42:34.558Z,8.63
2018-01-22T08:45:09.835Z,8.00
2018-01-22T08:47:45.116Z,8.13
2018-01-22T08:50:20.555Z,7.63
2018-01-22T08:52:55.402Z,6.90
2018-01-22T08:55:29.874Z,9.73
2018-01-22T08:58:04.651Z,6.97
2018-01-22T09:00:39.728Z,8.43
2018-01-22T09:03:14.780Z,8.60
2018-01-22T09:05:49.992Z,10.67
2018-01-22T09:08:25.247Z,9.30
2018-01-22T09:11:00.824Z,6.63
2018-01-22T09:13:35.794Z,6.90
2018-01-22T09:16:11.042Z,5.82
2018-01-22T09:18:46.535Z,5.75
2018-01-22T09:21:21.109Z,8.60
2018-01-22T09:23:56.103Z,5.60
2018-01-22T09:26:31.065Z,6.50
2018-01-22T09:29:06.044Z,6.40
2018-01-22T09:31:41.218Z,6.57
2018-01-22T09:34:16.803Z,6.97
2018-01-22T09:36:51.056Z,7.67
2018-01-22T09:39:26.254Z,6.43
2018-01-22T09:42:00.918Z,7.80
2018-01-22T09:44:35.791Z,7.80
2018-01-22T09:47:10.675Z,6.50
2018-01-22T09:49:45.788Z,6.40
2018-01-22T09:52:20.987Z,7.30
2018-01-22T09:54:56.351Z,7.10
2018-01-22T09:57:31.023Z,7.50
2018-01-22T10:00:05.934Z,7.67
2018-01-22T10:02:40.321Z,6.00
2018-01-22T10:05:15.816Z,6.55
2018-01-22T10:07:50.325Z,6.07
2018-01-22T10:10:25.206Z,6.13
2018-01-22T10:13:00.412Z,7.07
2018-01-22T10:15:34.987Z,7.27
2018-01-22T10:18:09.438Z,6.45
2018-01-22T10:20:44.819Z,6.90
2018-01-22T10:23:19.894Z,6.20
2018-01-22T10:25:54.339Z,6.60
2018-01-22T10:28:28.867Z,8.70
2018-01-22T10:31:04.118Z,6.35
2018-01-22T10:33:39.114Z,6.40
2018-01-22T10:36:14.354Z,6.23
2018-01-22T10:38:49.771Z,5.25
2018-01-22T10:41:24.978Z,6.10
2018-01-22T10:44:00.476Z,4.73
2018-01-22T10:46:35.446Z,5.63
2018-01-22T10:49:10.430Z,5.47
2018-01-22T10:51:45.982Z,5.40
2018-01-22T10:54:20.815Z,5.00
2018-01-22T10:56:56.032Z,5.57
2018-01-22T10:59:30.894Z,6.43
2018-01-22T11:02:06.255Z,6.00
2018-01-22T11:04:41.125Z,6.70
2018-01-22T11:07:16.009Z,7.05
2018-01-22T11:09:50.980Z,6.77
2018-01-22T11:12:25.943Z,7.10
2018-01-22T11:15:00.791Z,7.10
2018-01-22T11:17:35.305Z,7.27
2018-01-22T11:20:10.266Z,10.00
2018-01-22T11:22:45.034Z,10.87
2018-01-22T11:25:20.140Z,10.33
2018-01-22T11:27:55.272Z,13.43
2018-01-22T11:30:30.190Z,13.20
2018-01-22T11:33:05.779Z,18.97
2018-01-22T11:35:40.567Z,17.90
2018-01-22T11:38:15.557Z,18.00
2018-01-22T11:40:51.286Z,15.30
2018-01-22T11:43:25.934Z,16.50
2018-01-22T11:46:01.205Z,12.30
2018-01-22T11:48:35.784Z,11.67
2018-01-22T11:51:11.160Z,11.00
2018-01-22T11:53:45.546Z,12.13
2018-01-22T11:56:20.069Z,11.73
2018-01-22T11:58:54.570Z,11.93
2018-01-22T12:01:29.527Z,13.30
2018-01-22T12:04:03.922Z,13.60
2018-01-22T12:06:39.235Z,11.43
2018-01-22T12:09:14.319Z,11.73
2018-01-22T12:11:49.506Z,11.70
2018-01-22T12:14:25.286Z,13.60
2018-01-22T12:17:00.641Z,11.83
2018-01-22T12:19:35.297Z,11.60
2018-01-22T12:22:10.379Z,12.17
2018-01-22T12:24:45.067Z,11.95
2018-01-22T12:27:20.134Z,11.98
2018-01-22T12:29:55.271Z,14.77
2018-01-22T12:32:30.070Z,15.90
2018-01-22T12:35:04.613Z,13.18
2018-01-22T12:37:39.804Z,14.30
2018-01-22T12:40:14.540Z,15.03
2018-01-22T12:42:49.601Z,23.27
2018-01-22T12:45:24.627Z,18.13
2018-01-22T12:48:00.772Z,19.30
2018-01-22T12:50:35.392Z,16.63
2018-01-22T12:53:10.884Z,15.00
2018-01-22T12:55:45.810Z,22.07
2018-01-22T12:58:20.915Z,22.40
2018-01-22T13:00:56.407Z,22.93
2018-01-22T13:03:31.352Z,25.00
2018-01-22T13:06:06.670Z,20.47
2018-01-22T13:08:42.027Z,26.17
2018-01-22T13:11:17.206Z,23.73
2018-01-22T13:13:52.631Z,26.10
2018-01-22T13:16:26.710Z,25.97
2018-01-22T13:19:01.579Z,30.50
2018-01-22T13:21:36.470Z,20.57
2018-01-22T13:24:11.891Z,31.80
2018-01-22T13:26:46.419Z,19.83
2018-01-22T13:29:20.798Z,24.83
2018-01-22T13:31:55.829Z,26.00
2018-01-22T13:34:30.594Z,22.97
2018-01-22T13:37:05.496Z,27.15
2018-01-22T13:39:40.562Z,25.80
2018-01-22T13:42:15.470Z,27.48
2018-01-22T13:44:50.354Z,23.60
2018-01-22T13:47:24.931Z,13.97
2018-01-22T13:50:00.806Z,27.23
2018-01-22T13:52:35.843Z,22.60
2018-01-22T13:55:10.608Z,26.00
2018-01-22T13:57:45.632Z,26.00
2018-01-22T14:00:20.939Z,26.27
2018-01-22T14:02:56.322Z,22.00
2018-01-22T14:05:30.699Z,27.03
2018-01-22T14:08:05.938Z,22.17
2018-01-22T14:10:40.937Z,24.20
2018-01-22T14:13:15.867Z,16.40
2018-01-22T14:15:50.990Z,17.37
2018-01-22T14:18:26.632Z,24.80
2018-01-22T14:21:01.407Z,21.17
2018-01-22T14:23:36.518Z,23.58
2018-01-22T14:26:10.706Z,20.55
2018-01-22T14:28:45.874Z,21.70
2018-01-22T14:31:21.555Z,25.80
2018-01-22T14:33:55.834Z,21.63
2018-01-22T14:36:30.655Z,21.83
2018-01-22T14:39:05.368Z,21.77
2018-01-22T14:41:40.097Z,25.00
2018-01-22T14:44:15.950Z,23.90
2018-01-22T14:46:50.794Z,20.10
2018-01-22T14:49:25.732Z,28.33
2018-01-22T14:52:01.689Z,19.63
2018-01-22T14:54:36.720Z,20.73
2018-01-22T14:57:11.704Z,21.13
2018-01-22T14:59:46.783Z,21.00
2018-01-22T15:02:21.900Z,29.90
2018-01-22T15:04:56.299Z,25.40
2018-01-22T15:07:31.763Z,22.60
2018-01-22T15:10:07.014Z,19.87
2018-01-22T15:12:41.923Z,21.20
2018-01-22T15:15:17.753Z,27.50
2018-01-22T15:17:52.812Z,20.57
2018-01-22T15:20:27.798Z,23.83
2018-01-22T15:23:03.039Z,23.63
2018-01-22T15:25:37.949Z,17.50
2018-01-22T15:28:12.714Z,30.20
2018-01-22T15:30:47.900Z,50.17
2018-01-22T15:33:22.988Z,20.10
2018-01-22T15:35:58.283Z,24.67
2018-01-22T15:38:33.704Z,21.07
2018-01-22T15:41:09.075Z,19.00
2018-01-22T15:43:44.538Z,21.33
2018-01-22T15:46:19.862Z,19.50
2018-01-22T15:48:54.916Z,36.63
2018-01-22T15:51:29.504Z,23.37
2018-01-22T15:54:04.258Z,26.97
2018-01-22T15:56:39.035Z,23.87
2018-01-22T15:59:14.123Z,24.60
2018-01-22T16:01:49.342Z,28.00
2018-01-22T16:04:24.838Z,28.53
2018-01-22T16:07:01.167Z,28.62
2018-01-22T16:09:36.044Z,29.27
2018-01-22T16:12:11.131Z,25.80
2018-01-22T16:14:46.191Z,25.97
2018-01-22T16:17:21.213Z,22.73
2018-01-22T16:19:55.870Z,30.77
2018-01-22T16:22:30.843Z,26.53
2018-01-22T16:25:06.099Z,33.43
2018-01-22T16:27:40.988Z,26.57
2018-01-22T16:30:16.735Z,30.43
2018-01-22T16:32:51.117Z,28.20
2018-01-22T16:35:26.302Z,26.10
2018-01-22T16:38:02.698Z,29.60
2018-01-22T16:40:38.094Z,27.13
2018-01-22T16:43:13.174Z,28.45
2018-01-22T16:45:48.142Z,25.87
2018-01-22T16:48:23.308Z,28.47
2018-01-22T16:50:58.032Z,30.67
2018-01-22T16:53:32.965Z,22.40
2018-01-22T16:56:08.361Z,19.80
2018-01-22T16:58:43.661Z,22.50
2018-01-22T17:01:19.178Z,33.42
2018-01-22T17:03:53.949Z,57.63
2018-01-22T17:06:29.389Z,25.70
2018-01-22T17:09:03.478Z,27.40
2018-01-22T17:11:38.203Z,20.90
2018-01-22T17:14:13.443Z,10.53
2018-01-22T17:16:48.961Z,23.10
2018-01-22T17:19:24.104Z,22.60
2018-01-22T17:21:59.311Z,22.33
2018-01-22T17:24:34.052Z,31.07
2018-01-22T17:27:09.344Z,33.47
2018-01-22T17:29:45.022Z,26.10
2018-01-22T17:32:20.281Z,20.50
2018-01-22T17:34:55.221Z,12.87
2018-01-22T17:37:30.071Z,22.77
2018-01-22T17:40:05.043Z,28.57
2018-01-22T17:42:40.174Z,24.77
2018-01-22T17:45:15.797Z,26.47
2018-01-22T17:47:50.513Z,25.30
2018-01-22T17:50:25.222Z,26.77
2018-01-22T17:53:01.576Z,23.90
2018-01-22T17:55:36.219Z,36.60
2018-01-22T17:58:11.263Z,30.10
2018-01-22T18:00:46.430Z,32.63
2018-01-22T18:03:22.016Z,27.10
2018-01-22T18:05:56.718Z,32.83
2018-01-22T18:08:31.306Z,21.20
2018-01-22T18:11:06.388Z,47.27
2018-01-22T18:13:41.271Z,56.20
2018-01-22T18:16:16.253Z,56.13
2018-01-22T18:18:51.210Z,19.67
2018-01-22T18:21:26.281Z,23.00
2018-01-22T18:24:01.591Z,23.60
2018-01-22T18:26:36.676Z,25.00
2018-01-22T18:29:11.304Z,24.43
2018-01-22T18:31:46.632Z,27.77
2018-01-22T18:34:21.789Z,25.30
2018-01-22T18:36:56.510Z,25.60
2018-01-22T18:39:31.619Z,28.40
2018-01-22T18:42:06.638Z,29.30
2018-01-22T18:44:41.599Z,23.40
2018-01-22T18:47:17.111Z,31.30
2018-01-22T18:49:52.216Z,20.70
2018-01-22T18:52:27.294Z,21.63
2018-01-22T18:55:02.443Z,28.53
2018-01-22T18:57:37.112Z,31.10
2018-01-22T19:00:12.399Z,21.27
2018-01-22T19:02:47.449Z,21.33
2018-01-22T19:05:22.422Z,22.77
2018-01-22T19:07:57.177Z,28.17
2018-01-22T19:10:34.315Z,26.67
2018-01-22T19:13:09.561Z,25.83
2018-01-22T19:15:45.340Z,24.73
2018-01-22T19:18:20.346Z,33.47
2018-01-22T19:20:54.926Z,30.77
2018-01-22T19:23:30.035Z,34.40
2018-01-22T19:26:05.422Z,38.03
2018-01-22T19:28:40.595Z,27.13
2018-01-22T19:31:15.347Z,32.28
2018-01-22T19:33:50.627Z,26.37
2018-01-22T19:36:26.366Z,23.93
2018-01-22T19:39:01.690Z,29.90
2018-01-22T19:41:36.403Z,27.13
2018-01-22T19:44:11.655Z,26.08
2018-01-22T19:46:46.535Z,27.97
2018-01-22T19:49:21.046Z,15.43
2018-01-22T19:51:56.401Z,20.60
2018-01-22T19:54:33.027Z,27.17
2018-01-22T19:57:08.595Z,26.03
2018-01-22T19:59:43.047Z,26.03
2018-01-22T20:02:17.387Z,20.10
2018-01-22T20:04:52.583Z,21.83
2018-01-22T20:07:27.692Z,21.77
2018-01-22T20:10:02.836Z,23.27
2018-01-22T20:12:38.013Z,25.67
2018-01-22T20:15:12.378Z,29.70
2018-01-22T20:17:47.070Z,20.17
2018-01-22T20:20:22.582Z,24.43
2018-01-22T20:22:57.775Z,25.90
2018-01-22T20:25:32.563Z,21.07
2018-01-22T20:28:07.812Z,30.57
2018-01-22T20:30:42.230Z,38.87
2018-01-22T20:33:17.819Z,20.17
2018-01-22T20:35:53.370Z,28.45
2018-01-22T20:38:28.627Z,22.93
2018-01-22T20:41:03.799Z,75.10
2018-01-22T20:43:39.321Z,21.52
2018-01-22T20:46:14.826Z,23.87
2018-01-22T20:48:49.695Z,40.50
2018-01-22T20:51:24.882Z,34.00
2018-01-22T20:53:59.591Z,31.20
2018-01-22T20:56:34.978Z,26.87
2018-01-22T20:59:10.632Z,35.57
2018-01-22T21:01:45.985Z,37.80
2018-01-22T21:04:21.570Z,27.47
2018-01-22T21:06:56.661Z,30.87
2018-01-22T21:09:31.847Z,29.93
2018-01-22T21:12:06.851Z,41.40
2018-01-22T21:14:42.446Z,20.35
2018-01-22T21:17:17.928Z,26.00
2018-01-22T21:19:52.786Z,27.50
2018-01-22T21:22:27.974Z,29.03
2018-01-22T21:25:03.046Z,33.27
2018-01-22T21:27:39.821Z,30.55
2018-01-22T21:30:14.754Z,26.75
2018-01-22T21:32:49.788Z,28.03
2018-01-22T21:35:24.771Z,29.73
2018-01-22T21:38:00.313Z,32.43
2018-01-22T21:40:35.731Z,29.97
2018-01-22T21:43:11.311Z,28.00
2018-01-22T21:45:46.042Z,29.47
2018-01-22T21:48:20.717Z,32.47
2018-01-22T21:50:55.824Z,35.70
2018-01-22T21:53:30.817Z,22.67
2018-01-22T21:56:05.940Z,30.73
2018-01-22T21:58:41.187Z,31.30
2018-01-22T22:01:15.950Z,26.45
2018-01-22T22:03:50.715Z,31.87
2018-01-22T22:09:23.088Z,33.97
2018-01-22T22:14:34.923Z,29.17
2018-01-22T22:17:10.014Z,24.58
2018-01-22T22:19:45.003Z,33.93
2018-01-22T22:22:20.185Z,38.27
2018-01-22T22:24:55.153Z,28.97
2018-01-22T22:27:30.666Z,28.83
2018-01-22T22:30:05.342Z,33.47
2018-01-22T22:32:40.198Z,21.90
2018-01-22T22:35:15.291Z,28.80
2018-01-22T22:37:50.133Z,28.20
2018-01-22T22:40:25.080Z,31.07
2018-01-22T22:43:00.359Z,29.80
2018-01-22T22:45:35.255Z,32.67
2018-01-22T22:48:10.150Z,37.10
2018-01-22T22:50:44.882Z,38.47
2018-01-22T22:53:20.247Z,30.83
2018-01-22T22:55:55.805Z,29.63
2018-01-22T22:58:30.849Z,38.60
2018-01-22T23:01:06.122Z,42.88
2018-01-22T23:03:40.983Z,28.47
2018-01-22T23:06:16.150Z,36.00
2018-01-22T23:08:50.981Z,23.60
2018-01-22T23:11:25.824Z,36.80
2018-01-22T23:14:02.180Z,24.45
2018-01-22T23:16:36.915Z,32.03
2018-01-22T23:19:11.596Z,31.47
2018-01-22T23:21:46.359Z,38.20
2018-01-22T23:24:21.456Z,39.90
2018-01-22T23:26:56.457Z,45.17
2018-01-22T23:29:31.225Z,35.10
2018-01-22T23:32:06.517Z,39.47
2018-01-22T23:34:41.994Z,29.83
2018-01-22T23:37:17.139Z,30.00
2018-01-22T23:39:52.034Z,29.43
2018-01-22T23:42:27.003Z,36.63
2018-01-22T23:45:02.400Z,35.40
2018-01-22T23:47:37.024Z,34.47
2018-01-22T23:50:12.046Z,23.03
2018-01-22T23:52:47.030Z,37.07
2018-01-22T23:55:22.040Z,36.53
2018-01-22T23:57:57.076Z,36.63
